Time;durP1;ratioP1;P1;durP2;ratioP2;P2;SDS_P1;SDS_P2;PMS_P1;PMS_P2;Temp;Humidity;BMP_temperature;BMP_pressure;BME280_temperature;BME280_humidity;BME280_pressure;Samples;Min_cycle;Max_cycle;Signal;HPM_P1;HPM_P2
2021/08/14 00:02:18;;;;;;;6.70;5.70;;;20.60;98.20;;;;;;5023425;28;20651;-74
2021/08/14 00:04:44;;;;;;;6.38;5.68;;;20.50;98.70;;;;;;5024272;28;20492;-74
2021/08/14 00:07:10;;;;;;;6.18;5.57;;;20.40;99.10;;;;;;5032289;28;20040;-75
2021/08/14 00:09:36;;;;;;;6.32;5.55;;;20.40;99.50;;;;;;5023760;28;20030;-75
2021/08/14 00:12:03;;;;;;;10.00;6.25;;;20.40;99.80;;;;;;5013158;28;20117;-75
2021/08/14 00:14:28;;;;;;;10.73;6.18;;;20.30;99.90;;;;;;5019122;28;20029;-76
2021/08/14 00:16:54;;;;;;;7.07;5.95;;;20.30;99.90;;;;;;5028820;28;20041;-76
2021/08/14 00:19:19;;;;;;;7.10;5.63;;;20.30;99.90;;;;;;5030808;28;20471;-76
2021/08/14 00:21:45;;;;;;;9.23;6.18;;;20.20;99.90;;;;;;5017082;28;20032;-74
2021/08/14 00:24:11;;;;;;;7.82;6.10;;;20.20;99.90;;;;;;5025578;28;20454;-75
2021/08/14 00:26:36;;;;;;;7.35;5.90;;;20.20;99.90;;;;;;5030855;28;20169;-74
2021/08/14 00:29:03;;;;;;;9.80;6.63;;;20.10;99.90;;;;;;5023997;28;20475;-76
2021/08/14 00:31:29;;;;;;;8.70;6.55;;;20.10;99.90;;;;;;5022186;28;20033;-76
2021/08/14 00:33:55;;;;;;;8.65;5.95;;;20.10;99.90;;;;;;5031313;28;20030;-76
2021/08/14 00:36:21;;;;;;;8.07;6.32;;;20.10;99.90;;;;;;5030785;28;20467;-73
2021/08/14 00:38:46;;;;;;;7.72;6.47;;;20.00;99.90;;;;;;5031721;28;20043;-75
2021/08/14 00:41:12;;;;;;;8.85;6.45;;;20.00;99.90;;;;;;5024781;28;20063;-73
2021/08/14 00:43:39;;;;;;;8.38;6.90;;;20.00;99.90;;;;;;5028710;28;20065;-75
2021/08/14 00:46:05;;;;;;;8.52;6.72;;;20.00;99.90;;;;;;5031678;28;20029;-75
2021/08/14 00:48:31;;;;;;;9.55;7.40;;;19.90;99.90;;;;;;5030898;28;20037;-74
2021/08/14 00:50:57;;;;;;;7.63;6.20;;;19.90;99.90;;;;;;5030685;28;20455;-75
2021/08/14 00:53:24;;;;;;;7.22;6.05;;;19.90;99.90;;;;;;5030699;28;20371;-74
2021/08/14 00:55:51;;;;;;;8.23;6.38;;;19.80;99.90;;;;;;5030985;28;20038;-75
2021/08/14 00:58:16;;;;;;;7.38;5.78;;;19.70;99.90;;;;;;5018610;28;20033;-73
2021/08/14 01:00:43;;;;;;;7.88;6.40;;;19.70;99.90;;;;;;5012484;28;20113;-75
2021/08/14 01:03:09;;;;;;;10.88;6.50;;;19.70;99.90;;;;;;5013346;28;20033;-75
2021/08/14 01:05:48;;;;;;;7.15;6.43;;;19.60;99.90;;;;;;5011066;28;20026;-75
2021/08/14 01:08:14;;;;;;;7.55;6.40;;;19.50;99.90;;;;;;5012181;28;20046;-73
2021/08/14 01:10:39;;;;;;;8.85;6.32;;;19.50;99.90;;;;;;5025292;28;20034;-74
2021/08/14 01:13:05;;;;;;;7.43;6.47;;;19.50;99.90;;;;;;5019787;28;20537;-75
2021/08/14 01:15:31;;;;;;;8.20;6.60;;;19.40;99.90;;;;;;5025465;28;20041;-74
2021/08/14 01:17:57;;;;;;;7.15;6.05;;;19.40;99.90;;;;;;5023739;28;20084;-75
2021/08/14 01:20:24;;;;;;;7.10;6.40;;;19.30;99.90;;;;;;5026954;28;20123;-77
2021/08/14 01:22:50;;;;;;;7.78;6.22;;;19.30;99.90;;;;;;5019115;28;20477;-74
2021/08/14 01:25:17;;;;;;;8.23;6.53;;;19.30;99.90;;;;;;5017963;28;20463;-73
2021/08/14 01:27:43;;;;;;;7.65;6.82;;;19.20;99.90;;;;;;5029266;28;20232;-75
2021/08/14 01:30:10;;;;;;;8.43;6.40;;;19.20;99.90;;;;;;5012357;28;20535;-74
2021/08/14 01:32:37;;;;;;;7.40;6.43;;;19.10;99.90;;;;;;5017899;28;20037;-74
2021/08/14 01:35:03;;;;;;;9.18;6.72;;;19.10;99.90;;;;;;5031148;28;20033;-77
2021/08/14 01:37:31;;;;;;;8.40;6.38;;;19.10;99.90;;;;;;5029699;28;20471;-74
2021/08/14 01:39:57;;;;;;;9.45;6.43;;;19.00;99.90;;;;;;5020507;28;20054;-74
2021/08/14 01:42:23;;;;;;;9.02;7.15;;;19.00;99.90;;;;;;5011106;28;20123;-74
2021/08/14 01:44:50;;;;;;;10.35;7.07;;;19.00;99.90;;;;;;5011963;28;20057;-75
2021/08/14 01:47:15;;;;;;;8.05;6.97;;;19.00;99.90;;;;;;5011504;28;20041;-73
2021/08/14 01:49:41;;;;;;;11.52;6.43;;;19.00;99.90;;;;;;5011290;28;20022;-75
2021/08/14 01:52:15;;;;;;;7.65;6.85;;;19.00;99.90;;;;;;5011159;28;20092;-75
2021/08/14 01:54:41;;;;;;;8.98;6.75;;;18.90;99.90;;;;;;5014499;28;20022;-75
2021/08/14 01:57:07;;;;;;;8.27;7.30;;;19.00;99.90;;;;;;5012192;28;20503;-75
2021/08/14 01:59:34;;;;;;;8.18;6.55;;;18.90;99.90;;;;;;5029499;28;20030;-74
2021/08/14 02:02:00;;;;;;;8.32;6.57;;;18.90;99.90;;;;;;5030600;28;20173;-74
2021/08/14 02:04:26;;;;;;;8.13;7.05;;;18.80;99.90;;;;;;5029146;28;20040;-74
2021/08/14 02:06:51;;;;;;;8.55;6.63;;;18.80;99.90;;;;;;5011396;28;20379;-74
2021/08/14 02:09:17;;;;;;;7.07;6.30;;;18.70;99.90;;;;;;5024270;28;20029;-73
2021/08/14 02:11:43;;;;;;;9.32;7.60;;;18.70;99.90;;;;;;5029863;28;20033;-75
2021/08/14 02:14:09;;;;;;;8.10;6.90;;;18.70;99.90;;;;;;5026806;28;20538;-75
2021/08/14 02:16:35;;;;;;;7.97;7.13;;;18.70;99.90;;;;;;5010532;28;20108;-75
2021/08/14 02:19:02;;;;;;;7.45;6.43;;;18.70;99.90;;;;;;5029431;28;20025;-75
2021/08/14 02:21:27;;;;;;;8.68;7.13;;;18.70;99.90;;;;;;5030623;28;20029;-74
2021/08/14 02:23:53;;;;;;;7.10;6.40;;;18.70;99.90;;;;;;5028245;28;20117;-75
2021/08/14 02:26:19;;;;;;;9.20;7.13;;;18.60;99.90;;;;;;5029385;28;20459;-72
2021/08/14 02:28:45;;;;;;;9.25;6.88;;;18.60;99.90;;;;;;5032145;28;20029;-74
2021/08/14 02:31:11;;;;;;;7.20;6.22;;;18.60;99.90;;;;;;5033824;28;20395;-74
2021/08/14 02:33:37;;;;;;;8.70;6.65;;;18.50;99.90;;;;;;5033285;28;20033;-74
2021/08/14 02:36:04;;;;;;;8.07;6.65;;;18.50;99.90;;;;;;5028761;28;20026;-75
2021/08/14 02:38:29;;;;;;;8.52;6.50;;;18.50;99.90;;;;;;5029004;28;20035;-75
2021/08/14 02:40:55;;;;;;;9.68;6.80;;;18.50;99.90;;;;;;5014735;28;20499;-74
2021/08/14 02:43:21;;;;;;;7.50;6.65;;;18.50;99.90;;;;;;5013923;28;20033;-73
2021/08/14 02:45:47;;;;;;;7.63;6.82;;;18.40;99.90;;;;;;5022171;28;20614;-74
2021/08/14 02:48:13;;;;;;;7.72;6.70;;;18.40;99.90;;;;;;5014557;28;20178;-74
2021/08/14 02:50:43;;;;;;;10.38;7.07;;;18.40;99.90;;;;;;5021007;28;20030;-75
2021/08/14 02:53:09;;;;;;;8.23;6.97;;;18.40;99.90;;;;;;5022360;28;20033;-76
2021/08/14 02:55:35;;;;;;;9.85;7.10;;;18.40;99.90;;;;;;5013482;28;20038;-74
2021/08/14 02:58:00;;;;;;;7.63;6.90;;;18.30;99.90;;;;;;5014396;28;20058;-74
2021/08/14 03:00:26;;;;;;;7.60;6.38;;;18.30;99.90;;;;;;5013647;28;20034;-75
2021/08/14 03:02:52;;;;;;;7.60;6.43;;;18.20;99.90;;;;;;5014222;28;20026;-75
2021/08/14 03:05:17;;;;;;;7.18;6.47;;;18.20;99.90;;;;;;5015170;28;20033;-73
2021/08/14 03:07:43;;;;;;;8.13;6.60;;;18.20;99.90;;;;;;5020519;28;20100;-75
2021/08/14 03:10:09;;;;;;;7.70;6.90;;;18.10;99.90;;;;;;5026122;28;20517;-75
2021/08/14 03:12:35;;;;;;;9.13;6.85;;;18.10;99.90;;;;;;5023652;28;20356;-75
2021/08/14 03:15:01;;;;;;;8.38;7.18;;;18.10;99.90;;;;;;5033439;28;20031;-75
2021/08/14 03:17:28;;;;;;;7.60;6.22;;;18.00;99.90;;;;;;5017291;28;20099;-75
2021/08/14 03:19:53;;;;;;;7.50;6.75;;;18.00;99.90;;;;;;5013747;28;20036;-75
2021/08/14 03:22:19;;;;;;;8.27;7.15;;;18.00;99.90;;;;;;5032413;28;20021;-73
2021/08/14 03:24:45;;;;;;;9.95;7.03;;;18.00;99.90;;;;;;5032735;28;20021;-75
2021/08/14 03:27:10;;;;;;;7.75;6.95;;;18.00;99.90;;;;;;5031935;28;20041;-75
2021/08/14 03:29:36;;;;;;;9.77;7.53;;;18.00;99.90;;;;;;5032072;28;20028;-75
2021/08/14 03:32:02;;;;;;;8.07;7.22;;;18.00;99.90;;;;;;5032985;28;20104;-76
2021/08/14 03:34:27;;;;;;;7.82;7.03;;;18.00;99.90;;;;;;5029516;28;20046;-76
2021/08/14 03:36:53;;;;;;;10.20;8.02;;;18.00;99.90;;;;;;5013415;28;20041;-76
2021/08/14 03:39:19;;;;;;;8.05;7.05;;;17.90;99.90;;;;;;5012804;28;20095;-73
2021/08/14 03:41:44;;;;;;;8.60;6.60;;;17.90;99.90;;;;;;5013009;28;20475;-75
2021/08/14 03:44:10;;;;;;;10.30;7.85;;;17.90;99.90;;;;;;5013408;28;20076;-75
2021/08/14 03:46:36;;;;;;;9.98;7.65;;;17.90;99.90;;;;;;5029650;28;20451;-74
2021/08/14 03:49:01;;;;;;;9.00;7.20;;;17.90;99.90;;;;;;5028272;28;20030;-77
2021/08/14 03:51:27;;;;;;;8.95;7.00;;;17.90;99.90;;;;;;5028752;28;20064;-75
2021/08/14 03:53:53;;;;;;;7.65;6.85;;;17.90;99.90;;;;;;5032435;28;20348;-76
2021/08/14 03:56:18;;;;;;;8.27;7.28;;;17.90;99.90;;;;;;5032201;28;20513;-75
2021/08/14 03:58:44;;;;;;;9.77;7.15;;;17.80;99.90;;;;;;5031872;28;20037;-76
2021/08/14 04:01:10;;;;;;;8.68;6.95;;;17.80;99.90;;;;;;5032811;28;20030;-76
2021/08/14 04:03:35;;;;;;;8.85;6.93;;;17.80;99.90;;;;;;5029916;28;20117;-73
2021/08/14 04:06:01;;;;;;;7.72;6.93;;;17.70;99.90;;;;;;5032464;28;20364;-76
2021/08/14 04:08:27;;;;;;;9.43;7.40;;;17.70;99.90;;;;;;5031392;28;20061;-75
2021/08/14 04:10:52;;;;;;;8.50;7.07;;;17.70;99.90;;;;;;5014350;28;20065;-76
2021/08/14 04:13:18;;;;;;;8.15;7.22;;;17.60;99.90;;;;;;5013835;28;20026;-75
2021/08/14 04:15:44;;;;;;;8.77;7.22;;;17.70;99.90;;;;;;5016111;28;20025;-76
2021/08/14 04:18:10;;;;;;;10.35;7.38;;;17.70;99.90;;;;;;5023181;28;20033;-76
2021/08/14 04:20:36;;;;;;;8.73;7.82;;;17.60;99.90;;;;;;5012212;28;20488;-74
2021/08/14 04:23:02;;;;;;;10.48;7.57;;;17.60;99.90;;;;;;5030554;28;20034;-74
2021/08/14 04:25:28;;;;;;;8.07;7.05;;;17.60;99.90;;;;;;5030860;28;20027;-74
2021/08/14 04:27:53;;;;;;;9.35;7.50;;;17.60;99.90;;;;;;5031416;28;20035;-76
2021/08/14 04:30:19;;;;;;;8.48;7.50;;;17.60;99.90;;;;;;5031758;28;20060;-74
2021/08/14 04:32:45;;;;;;;8.57;6.93;;;17.60;99.90;;;;;;5022850;28;20463;-73
2021/08/14 04:35:13;;;;;;;8.38;7.32;;;17.60;99.90;;;;;;5031809;28;20597;-75
2021/08/14 04:37:38;;;;;;;9.13;7.63;;;17.60;99.90;;;;;;5031271;28;20050;-75
2021/08/14 04:40:07;;;;;;;9.77;8.00;;;17.60;99.90;;;;;;5022595;28;20460;-75
2021/08/14 04:42:34;;;;;;;8.77;7.88;;;17.70;99.90;;;;;;5011629;28;20037;-74
2021/08/14 04:45:00;;;;;;;11.38;6.97;;;17.80;99.90;;;;;;5012402;28;20105;-75
2021/08/14 04:47:25;;;;;;;7.95;7.15;;;17.80;99.90;;;;;;5019821;28;20116;-74
2021/08/14 04:49:51;;;;;;;8.40;6.93;;;17.80;99.90;;;;;;5012165;28;20108;-74
2021/08/14 04:52:17;;;;;;;8.07;7.10;;;17.90;99.90;;;;;;5012191;28;20026;-75
2021/08/14 04:54:43;;;;;;;8.20;7.30;;;17.90;99.90;;;;;;5011515;28;20024;-74
2021/08/14 04:57:08;;;;;;;8.07;7.22;;;18.00;99.90;;;;;;5013248;28;20038;-74
2021/08/14 04:59:34;;;;;;;12.73;7.38;;;18.00;99.90;;;;;;5014669;28;20390;-73
2021/08/14 05:02:02;;;;;;;9.50;7.55;;;18.10;99.90;;;;;;5028269;28;20092;-73
2021/08/14 05:04:28;;;;;;;9.27;7.38;;;18.10;99.90;;;;;;5011108;28;20391;-74
2021/08/14 05:06:53;;;;;;;8.75;7.10;;;18.20;99.90;;;;;;5011993;28;20080;-74
2021/08/14 05:09:19;;;;;;;7.95;7.10;;;18.20;99.90;;;;;;5013249;28;20037;-74
2021/08/14 05:11:44;;;;;;;8.60;6.80;;;18.30;99.90;;;;;;5011126;28;20936;-74
2021/08/14 05:14:10;;;;;;;7.93;7.10;;;18.40;99.90;;;;;;5013129;28;20029;-74
2021/08/14 05:16:39;;;;;;;9.32;6.97;;;18.40;99.90;;;;;;5024175;28;20071;-75
2021/08/14 05:19:06;;;;;;;8.98;7.10;;;18.50;99.90;;;;;;5014495;28;20040;-75
2021/08/14 05:21:33;;;;;;;9.98;7.93;;;18.60;99.90;;;;;;5011358;28;20075;-75
2021/08/14 05:23:59;;;;;;;9.02;7.72;;;18.60;99.90;;;;;;5018023;28;20030;-74
2021/08/14 05:26:25;;;;;;;8.15;7.07;;;18.70;99.90;;;;;;5030087;28;20026;-73
2021/08/14 05:28:51;;;;;;;11.05;7.47;;;18.80;99.90;;;;;;5018731;28;20030;-74
2021/08/14 05:31:17;;;;;;;9.27;7.80;;;18.90;99.90;;;;;;5026674;28;20100;-75
2021/08/14 05:33:43;;;;;;;9.07;7.43;;;18.90;99.90;;;;;;5013839;28;20073;-74
2021/08/14 05:36:09;;;;;;;9.93;7.78;;;19.00;99.90;;;;;;5018538;28;20026;-74
2021/08/14 05:38:35;;;;;;;9.95;8.23;;;19.10;99.90;;;;;;5011120;28;20078;-74
2021/08/14 05:41:02;;;;;;;9.35;7.25;;;19.20;99.90;;;;;;5011439;28;20069;-75
2021/08/14 05:43:27;;;;;;;11.02;8.85;;;19.30;99.90;;;;;;5023660;28;20030;-74
2021/08/14 05:45:53;;;;;;;11.30;8.63;;;19.40;99.90;;;;;;5030416;28;20025;-75
2021/08/14 05:48:19;;;;;;;12.60;8.98;;;19.40;99.90;;;;;;5030070;28;20485;-75
2021/08/14 05:50:45;;;;;;;11.68;8.73;;;19.50;99.90;;;;;;5024196;28;20101;-74
2021/08/14 05:53:13;;;;;;;10.82;8.02;;;19.60;99.90;;;;;;5011857;28;20454;-74
2021/08/14 05:55:38;;;;;;;8.95;8.05;;;19.70;99.90;;;;;;5027033;28;20030;-75
2021/08/14 05:58:04;;;;;;;14.18;8.77;;;19.80;99.90;;;;;;5033868;28;20382;-75
2021/08/14 06:00:30;;;;;;;13.45;8.80;;;19.90;99.90;;;;;;5018701;28;20088;-74
2021/08/14 06:02:55;;;;;;;11.50;8.90;;;20.10;99.90;;;;;;5032482;28;20033;-75
2021/08/14 06:05:21;;;;;;;11.52;8.70;;;20.20;99.90;;;;;;5034617;28;20323;-75
2021/08/14 06:07:48;;;;;;;9.00;8.10;;;20.30;99.90;;;;;;5033840;28;20060;-79
2021/08/14 06:10:14;;;;;;;10.70;8.27;;;20.40;99.90;;;;;;5023559;28;20044;-75
2021/08/14 06:12:40;;;;;;;14.40;8.82;;;20.40;99.90;;;;;;5019902;28;20069;-74
2021/08/14 06:15:06;;;;;;;11.20;8.35;;;20.60;99.90;;;;;;5022592;28;20022;-76
2021/08/14 06:17:32;;;;;;;8.43;7.53;;;20.60;99.90;;;;;;5014187;28;20542;-75
2021/08/14 06:19:57;;;;;;;8.05;7.03;;;20.70;99.90;;;;;;5015121;28;20018;-75
2021/08/14 06:22:23;;;;;;;10.60;7.90;;;20.80;99.90;;;;;;5023599;28;20104;-75
2021/08/14 06:24:50;;;;;;;10.85;8.65;;;20.90;99.90;;;;;;5033880;28;20025;-74
2021/08/14 06:27:16;;;;;;;10.13;7.53;;;21.00;99.90;;;;;;5034076;28;20021;-77
2021/08/14 06:29:42;;;;;;;10.82;8.90;;;21.10;99.90;;;;;;5020981;28;20049;-73
2021/08/14 06:32:08;;;;;;;9.80;8.80;;;21.20;99.90;;;;;;5014344;28;20030;-74
2021/08/14 06:34:33;;;;;;;13.10;8.68;;;21.30;99.90;;;;;;5030249;28;20029;-74
2021/08/14 06:36:59;;;;;;;10.77;8.65;;;21.40;99.90;;;;;;5033593;28;20442;-77
2021/08/14 06:39:25;;;;;;;10.63;8.98;;;21.50;99.90;;;;;;5033121;28;20153;-77
2021/08/14 06:41:50;;;;;;;12.93;8.15;;;21.60;99.90;;;;;;5032800;28;20056;-74
2021/08/14 06:44:16;;;;;;;11.93;9.52;;;21.70;99.90;;;;;;5025889;28;20032;-73
2021/08/14 06:46:41;;;;;;;11.07;8.48;;;21.80;99.90;;;;;;5032958;28;20033;-74
2021/08/14 06:49:07;;;;;;;14.18;9.10;;;21.90;99.90;;;;;;5033179;28;20474;-76
2021/08/14 06:51:33;;;;;;;13.10;9.75;;;22.00;99.90;;;;;;5032951;28;20104;-76
2021/08/14 06:53:59;;;;;;;14.65;8.90;;;22.10;99.90;;;;;;5033814;28;20026;-76
2021/08/14 06:56:25;;;;;;;15.45;10.05;;;22.20;99.90;;;;;;5031524;28;20041;-78
2021/08/14 06:58:51;;;;;;;13.05;10.13;;;22.30;99.90;;;;;;5026771;28;20030;-77
2021/08/14 07:01:16;;;;;;;13.80;10.05;;;22.50;99.90;;;;;;5033348;28;20495;-76
2021/08/14 07:03:42;;;;;;;13.00;10.25;;;22.50;99.90;;;;;;5032938;28;20060;-76
2021/08/14 07:06:08;;;;;;;13.90;10.07;;;22.70;99.90;;;;;;5033861;28;20026;-76
2021/08/14 07:08:34;;;;;;;14.57;11.00;;;22.70;99.90;;;;;;5030788;28;20033;-77
2021/08/14 07:10:59;;;;;;;12.93;9.80;;;22.80;99.90;;;;;;5018420;28;20427;-76
2021/08/14 07:13:25;;;;;;;19.50;10.98;;;22.80;99.90;;;;;;5032205;28;20037;-77
2021/08/14 07:15:51;;;;;;;12.35;10.80;;;23.00;99.90;;;;;;5015083;28;20083;-76
2021/08/14 07:18:16;;;;;;;16.10;11.20;;;23.00;99.90;;;;;;5028443;28;20045;-76
2021/08/14 07:20:42;;;;;;;17.05;9.90;;;23.10;99.90;;;;;;5030088;28;20045;-76
2021/08/14 07:23:07;;;;;;;13.45;9.63;;;23.20;99.90;;;;;;5014068;28;20037;-76
2021/08/14 07:25:33;;;;;;;11.65;9.48;;;23.30;99.90;;;;;;5014588;28;20486;-77
2021/08/14 07:27:59;;;;;;;15.75;10.60;;;23.30;99.90;;;;;;5013786;28;20076;-76
2021/08/14 07:30:24;;;;;;;17.02;10.20;;;23.50;99.90;;;;;;5020442;28;20407;-76
2021/08/14 07:32:50;;;;;;;12.52;9.98;;;23.60;99.90;;;;;;5013525;28;20037;-75
2021/08/14 07:35:16;;;;;;;17.48;10.52;;;23.70;99.90;;;;;;5013943;28;20029;-75
2021/08/14 07:37:49;;;;;;;11.98;9.25;;;23.70;99.90;;;;;;5012564;28;20037;-77
2021/08/14 07:40:20;;;;;;;11.25;9.40;;;23.80;99.90;;;;;;5013388;28;20046;-76
2021/08/14 07:42:45;;;;;;;14.93;9.50;;;23.90;99.90;;;;;;5012700;28;20064;-76
2021/08/14 07:45:15;;;;;;;13.95;8.85;;;24.10;99.90;;;;;;5013507;28;20057;-76
2021/08/14 07:47:42;;;;;;;11.52;8.68;;;24.10;99.90;;;;;;5016136;28;20479;-76
2021/08/14 07:50:09;;;;;;;11.77;8.65;;;24.40;99.90;;;;;;5013589;28;20036;-76
2021/08/14 07:52:35;;;;;;;12.10;9.00;;;24.60;99.90;;;;;;5013046;28;20415;-76
2021/08/14 07:55:00;;;;;;;14.75;9.25;;;24.60;99.90;;;;;;5021240;28;20093;-76
2021/08/14 07:57:26;;;;;;;12.80;9.25;;;24.80;99.90;;;;;;5013102;28;20060;-77
2021/08/14 07:59:52;;;;;;;11.32;8.93;;;24.90;99.90;;;;;;5021551;28;20082;-76
2021/08/14 08:02:18;;;;;;;16.52;9.85;;;25.00;99.60;;;;;;5031922;28;20092;-77
2021/08/14 08:04:43;;;;;;;11.00;8.73;;;25.10;99.70;;;;;;5031754;28;20025;-76
2021/08/14 08:07:09;;;;;;;11.57;9.52;;;25.20;98.70;;;;;;5032410;28;20087;-76
2021/08/14 08:09:34;;;;;;;12.57;8.60;;;25.30;98.30;;;;;;5025961;28;20053;-76
2021/08/14 08:12:00;;;;;;;14.02;9.23;;;25.30;98.60;;;;;;5016184;28;20077;-78
2021/08/14 08:14:25;;;;;;;12.60;9.02;;;25.40;98.00;;;;;;5012910;28;20026;-76
2021/08/14 08:16:52;;;;;;;14.13;8.43;;;25.50;97.40;;;;;;5011969;28;20030;-77
2021/08/14 08:19:17;;;;;;;9.93;7.55;;;25.70;96.40;;;;;;5012464;28;20530;-76
2021/08/14 08:21:43;;;;;;;10.50;8.30;;;25.80;95.60;;;;;;5019926;28;20121;-76
2021/08/14 08:24:09;;;;;;;13.00;8.98;;;25.90;95.80;;;;;;5027737;28;20356;-76
2021/08/14 08:26:34;;;;;;;13.32;9.30;;;26.00;95.70;;;;;;5021265;28;20057;-76
2021/08/14 08:29:00;;;;;;;12.25;8.63;;;26.00;95.30;;;;;;5012783;28;20121;-75
2021/08/14 08:31:26;;;;;;;13.15;8.30;;;26.00;94.80;;;;;;5019732;28;20030;-76
2021/08/14 08:33:59;;;;;;;15.75;9.05;;;26.10;94.50;;;;;;5021216;28;20425;-78
2021/08/14 08:36:25;;;;;;;11.00;7.97;;;26.30;94.50;;;;;;5034136;28;20033;-83
2021/08/14 08:38:50;;;;;;;12.63;7.95;;;26.30;94.40;;;;;;5015187;28;20447;-88
2021/08/14 08:41:17;;;;;;;10.18;7.25;;;26.30;94.30;;;;;;5031806;28;20383;-81
2021/08/14 08:43:43;;;;;;;18.52;7.82;;;26.50;92.90;;;;;;5031446;28;20498;-79
2021/08/14 08:46:10;;;;;;;12.68;7.15;;;26.60;92.80;;;;;;5022667;28;20030;-79
2021/08/14 08:48:42;;;;;;;8.70;6.72;;;26.70;91.90;;;;;;5024709;28;20498;-84
2021/08/14 08:51:07;;;;;;;9.32;7.60;;;26.80;91.50;;;;;;5030568;28;20030;-75
2021/08/14 08:53:33;;;;;;;9.38;7.00;;;26.90;90.00;;;;;;5029724;28;20111;-77
2021/08/14 08:55:59;;;;;;;10.13;7.60;;;27.00;90.00;;;;;;5030186;28;20033;-75
2021/08/14 08:58:25;;;;;;;12.52;8.25;;;27.10;90.30;;;;;;5031387;28;20041;-75
2021/08/14 09:00:50;;;;;;;14.68;8.00;;;27.20;89.50;;;;;;5021069;28;20465;-75
2021/08/14 09:03:16;;;;;;;9.60;6.25;;;27.30;88.20;;;;;;5011976;28;20486;-76
2021/08/14 09:06:00;;;;;;;12.93;6.93;;;27.40;87.50;;;;;;5011384;28;20101;-74
2021/08/14 09:08:26;;;;;;;10.27;7.15;;;27.50;87.70;;;;;;5026563;28;20038;-75
2021/08/14 09:11:09;;;;;;;9.13;7.22;;;27.60;87.10;;;;;;5021566;28;20030;-75
2021/08/14 09:13:35;;;;;;;8.57;7.50;;;27.70;86.50;;;;;;5023330;28;20036;-76
2021/08/14 09:16:22;;;;;;;10.32;7.32;;;27.80;84.30;;;;;;5030056;28;20034;-75
2021/08/14 09:18:55;;;;;;;7.97;6.95;;;27.90;84.00;;;;;;5029125;28;20060;-75
2021/08/14 09:21:34;;;;;;;9.52;7.30;;;28.00;83.80;;;;;;5030964;28;20083;-74
2021/08/14 09:24:04;;;;;;;8.25;7.47;;;28.10;82.00;;;;;;5030678;28;20449;-74
2021/08/14 09:26:45;;;;;;;;;;;28.20;81.60;;;;;;5031629;28;20065;-77
2021/08/14 09:29:11;;;;;;;10.38;7.32;;;28.30;81.10;;;;;;5028153;28;20444;-74
2021/08/14 09:31:50;;;;;;;9.30;7.30;;;28.30;79.70;;;;;;5012222;28;20026;-76
2021/08/14 09:34:21;;;;;;;9.00;7.20;;;28.30;79.60;;;;;;5018000;28;20071;-74
2021/08/14 09:37:14;;;;;;;7.85;6.90;;;28.30;78.80;;;;;;5033137;28;20077;-75
2021/08/14 09:39:57;;;;;;;10.48;7.28;;;28.40;78.40;;;;;;5033994;28;20046;-75
2021/08/14 09:42:25;;;;;;;10.05;7.13;;;28.40;77.90;;;;;;5035248;28;20108;-78
2021/08/14 09:45:13;;;;;;;13.85;7.45;;;28.40;77.50;;;;;;5034163;28;20112;-76
2021/08/14 09:47:39;;;;;;;8.20;6.88;;;28.60;76.20;;;;;;5034387;28;20164;-76
2021/08/14 09:50:05;;;;;;;10.68;7.70;;;28.50;76.50;;;;;;5021552;28;20485;-75
2021/08/14 09:52:31;;;;;;;11.38;6.90;;;28.60;75.70;;;;;;5015318;28;20514;-78
2021/08/14 09:54:57;;;;;;;9.73;6.38;;;28.50;75.50;;;;;;5034220;28;20049;-76
2021/08/14 09:57:25;;;;;;;7.40;6.55;;;28.60;76.10;;;;;;5031992;28;20045;-77
2021/08/14 09:59:52;;;;;;;9.55;6.88;;;28.60;75.30;;;;;;5015630;28;20049;-76
2021/08/14 10:02:25;;;;;;;9.27;7.55;;;28.80;75.40;;;;;;5015099;28;20099;-76
2021/08/14 10:04:52;;;;;;;7.20;6.47;;;28.90;73.00;;;;;;5029326;28;20026;-77
2021/08/14 10:07:18;;;;;;;16.48;7.90;;;28.90;74.00;;;;;;5015210;28;20044;-77
2021/08/14 10:09:46;;;;;;;13.50;7.32;;;29.10;73.20;;;;;;5022344;28;20108;-77
2021/08/14 10:12:13;;;;;;;11.05;7.32;;;29.10;72.40;;;;;;5021092;28;20541;-77
2021/08/14 10:14:40;;;;;;;11.70;7.10;;;29.10;72.90;;;;;;5032654;28;20049;-68
2021/08/14 10:17:06;;;;;;;9.57;6.80;;;29.10;71.70;;;;;;5033922;28;20029;-67
2021/08/14 10:19:32;;;;;;;11.32;7.10;;;29.10;72.00;;;;;;5017440;28;20117;-68
2021/08/14 10:21:58;;;;;;;11.18;7.55;;;29.20;71.60;;;;;;5020691;28;20097;-67
2021/08/14 10:24:25;;;;;;;8.15;6.90;;;29.30;71.80;;;;;;5014928;28;20444;-67
2021/08/14 10:27:04;;;;;;;11.20;6.90;;;29.50;70.60;;;;;;5015813;28;20096;-67
2021/08/14 10:29:43;;;;;;;11.65;7.10;;;29.60;70.20;;;;;;5034289;28;20514;-67
2021/08/14 10:32:08;;;;;;;9.13;7.73;;;29.70;70.00;;;;;;5015017;28;20037;-67
2021/08/14 10:34:34;;;;;;;9.95;7.45;;;29.90;69.30;;;;;;5020813;28;20037;-67
2021/08/14 10:37:21;;;;;;;9.88;7.00;;;30.00;68.80;;;;;;5033452;28;20041;-68
2021/08/14 10:39:55;;;;;;;12.35;7.03;;;30.10;68.50;;;;;;5032436;28;20049;-67
2021/08/14 10:42:49;;;;;;;9.07;6.90;;;30.20;68.50;;;;;;5025928;28;20099;-68
2021/08/14 10:45:31;;;;;;;7.85;6.75;;;30.30;67.80;;;;;;5033503;28;20116;-67
2021/08/14 10:47:59;;;;;;;6.95;6.25;;;30.40;67.70;;;;;;5032967;28;20063;-67
2021/08/14 10:50:31;;;;;;;9.63;6.63;;;30.50;67.20;;;;;;5015104;28;20088;-67
2021/08/14 10:53:12;;;;;;;7.75;6.82;;;30.60;66.60;;;;;;5022249;28;20030;-67
2021/08/14 10:55:42;;;;;;;7.75;6.90;;;30.80;65.70;;;;;;5015665;28;20040;-67
2021/08/14 10:58:32;;;;;;;10.85;7.20;;;30.80;66.00;;;;;;5033411;28;20096;-67
2021/08/14 11:01:03;;;;;;;8.40;6.50;;;30.90;65.80;;;;;;5032793;28;20038;-67
2021/08/14 11:03:39;;;;;;;7.20;6.50;;;30.90;65.20;;;;;;5024432;28;20072;-67
2021/08/14 11:06:23;;;;;;;7.85;6.80;;;31.00;65.20;;;;;;5033363;28;20540;-67
2021/08/14 11:08:49;;;;;;;8.23;6.03;;;31.00;64.20;;;;;;5031629;28;20411;-68
2021/08/14 11:11:56;;;;;;;10.35;6.97;;;31.10;64.10;;;;;;5033154;28;20033;-67
2021/08/14 11:14:59;;;;;;;11.38;7.68;;;31.20;63.90;;;;;;5005534;28;20722;-68
2021/08/14 11:17:35;;;;;;;9.23;7.47;;;31.40;64.10;;;;;;5019604;28;20050;-67
2021/08/14 11:20:01;;;;;;;8.15;6.70;;;31.60;63.00;;;;;;5022555;28;20033;-68
2021/08/14 11:22:40;;;;;;;6.78;6.07;;;31.80;63.20;;;;;;5033861;28;20030;-68
2021/08/14 11:25:28;;;;;;;8.48;6.30;;;32.00;62.70;;;;;;5024319;28;20112;-67
2021/08/14 11:27:58;;;;;;;8.35;6.45;;;32.10;62.40;;;;;;5013117;28;20037;-67
2021/08/14 11:30:27;;;;;;;12.90;6.70;;;32.20;61.80;;;;;;5013887;28;20030;-67
2021/08/14 11:32:54;;;;;;;9.73;6.57;;;32.30;61.60;;;;;;5019123;28;20029;-68
2021/08/14 11:35:23;;;;;;;11.80;7.22;;;32.50;61.50;;;;;;5032205;28;20040;-67
2021/08/14 11:37:53;;;;;;;9.03;7.07;;;32.70;61.00;;;;;;5032103;28;20091;-68
2021/08/14 11:40:21;;;;;;;10.38;8.05;;;32.90;60.00;;;;;;5016483;28;20046;-67
2021/08/14 11:43:17;;;;;;;11.70;7.22;;;33.00;59.20;;;;;;5012833;28;20475;-67
2021/08/14 11:45:45;;;;;;;8.55;7.15;;;32.70;59.10;;;;;;5011786;28;20081;-68
2021/08/14 11:48:13;;;;;;;12.85;7.53;;;32.40;59.50;;;;;;5027152;28;20037;-67
2021/08/14 11:50:40;;;;;;;9.32;6.93;;;32.50;60.20;;;;;;5031498;28;20034;-67
2021/08/14 11:53:09;;;;;;;9.35;6.93;;;32.70;60.10;;;;;;5028675;28;20026;-67
2021/08/14 11:55:35;;;;;;;8.02;6.85;;;32.80;59.80;;;;;;5014396;28;20034;-67
2021/08/14 11:58:01;;;;;;;10.98;7.43;;;33.00;60.00;;;;;;5031693;28;20124;-67
2021/08/14 12:00:35;;;;;;;8.95;7.20;;;33.20;59.00;;;;;;5032010;28;20112;-67
2021/08/14 12:03:11;;;;;;;10.35;6.90;;;33.40;57.60;;;;;;5014166;28;20037;-68
2021/08/14 12:05:40;;;;;;;10.98;7.30;;;33.30;58.00;;;;;;5018048;28;20025;-68
2021/08/14 12:08:07;;;;;;;10.38;7.45;;;33.10;57.80;;;;;;5023868;28;20029;-67
2021/08/14 12:10:34;;;;;;;10.27;7.22;;;32.80;58.40;;;;;;5017454;28;20025;-67
2021/08/14 12:13:06;;;;;;;10.60;6.97;;;32.50;58.80;;;;;;5012321;28;20044;-67
2021/08/14 12:15:35;;;;;;;8.25;7.32;;;32.40;59.00;;;;;;5013521;28;20040;-68
2021/08/14 12:18:02;;;;;;;9.00;7.40;;;32.50;59.10;;;;;;5012512;28;20044;-68
2021/08/14 12:20:35;;;;;;;13.93;8.48;;;32.50;59.20;;;;;;5012382;28;20498;-67
2021/08/14 12:23:25;;;;;;;7.72;6.85;;;32.30;59.50;;;;;;5011492;28;20387;-67
2021/08/14 12:25:51;;;;;;;8.95;8.05;;;32.00;59.90;;;;;;5012206;28;20076;-67
2021/08/14 12:28:17;;;;;;;9.82;7.50;;;31.80;60.10;;;;;;5012825;28;20471;-67
2021/08/14 12:30:43;;;;;;;9.00;7.30;;;31.50;60.30;;;;;;5021424;28;20033;-67
2021/08/14 12:33:25;;;;;;;8.50;7.65;;;31.30;61.20;;;;;;5018912;28;20030;-67
2021/08/14 12:35:58;;;;;;;9.05;6.75;;;31.10;61.60;;;;;;5013536;28;20029;-68
2021/08/14 12:38:24;;;;;;;8.80;7.00;;;31.30;61.30;;;;;;5018018;28;20088;-68
2021/08/14 12:40:50;;;;;;;8.35;7.20;;;31.50;61.00;;;;;;5011690;28;20053;-68
2021/08/14 12:43:17;;;;;;;9.73;6.97;;;31.80;59.80;;;;;;5011446;28;20038;-68
2021/08/14 12:45:43;;;;;;;11.32;7.80;;;31.90;60.40;;;;;;5023148;28;20041;-67
2021/08/14 12:48:12;;;;;;;8.35;6.72;;;32.10;59.20;;;;;;5031740;28;20032;-68